Time;durP1;ratioP1;P1;durP2;ratioP2;P2;SDS_P1;SDS_P2;PMS_P1;PMS_P2;Temp;Humidity;BMP_temperature;BMP_pressure;BME280_temperature;BME280_humidity;BME280_pressure;Samples;Min_cycle;Max_cycle;Signal;HPM_P1;HPM_P2
2021/12/15 00:04:29;;;;;;;48.25;21.65;;;;;;;4.33;61.83;101074.06;4394922;32;34803;-91
2021/12/15 00:07:37;;;;;;;45.40;22.08;;;;;;;4.19;62.55;101076.66;4385326;32;33883;-91
2021/12/15 00:10:26;;;;;;;55.40;24.73;;;;;;;4.32;61.90;101072.31;4383138;32;32925;-91
2021/12/15 00:13:25;;;;;;;47.75;21.85;;;;;;;4.09;62.56;101067.91;4347433;33;32021;-91
2021/12/15 00:16:06;;;;;;;47.78;22.40;;;;;;;4.05;62.96;101070.50;4366270;32;34182;-91
2021/12/15 00:19:07;;;;;;;;;;;;;;;4.14;62.82;101075.78;4335254;33;32583;-90
2021/12/15 00:21:51;;;;;;;47.83;21.30;;;;;;;4.24;62.10;101067.06;4372669;32;33433;-90
2021/12/15 00:24:33;;;;;;;41.30;20.30;;;;;;;4.01;62.96;101058.28;4338912;32;32585;-91
2021/12/15 00:27:02;;;;;;;48.00;22.20;;;;;;;4.23;62.70;101060.09;4351162;32;32736;-94
2021/12/15 00:29:53;;;;;;;43.22;21.20;;;;;;;4.25;62.52;101058.34;4337590;33;33535;-94
2021/12/15 00:32:33;;;;;;;45.78;21.80;;;;;;;4.35;62.33;101049.66;4359617;32;33657;-94
2021/12/15 00:35:15;;;;;;;43.20;21.33;;;;;;;4.47;61.95;101064.50;4333946;32;32671;-94
2021/12/15 00:38:10;;;;;;;44.35;21.95;;;;;;;4.54;61.30;101065.38;4357573;32;34544;-94
2021/12/15 00:40:50;;;;;;;50.97;23.00;;;;;;;4.19;62.34;101067.94;4378743;32;32826;-95
2021/12/15 00:43:41;;;;;;;41.15;22.13;;;;;;;4.41;61.99;101069.72;4365399;32;32886;-92
2021/12/15 00:46:21;;;;;;;51.65;24.58;;;;;;;4.55;61.28;101083.69;4383817;32;32569;-90
2021/12/15 00:49:12;;;;;;;44.95;20.77;;;;;;;4.14;62.54;101085.34;4344102;33;32257;-93
2021/12/15 00:51:52;;;;;;;44.65;21.77;;;;;;;4.25;62.52;101086.25;4333199;33;34172;-90
2021/12/15 00:54:44;;;;;;;50.80;23.73;;;;;;;4.15;62.75;101087.97;4337449;33;34323;-92
2021/12/15 00:57:23;;;;;;;52.10;24.10;;;;;;;4.20;62.46;101087.97;4363081;32;32192;-93
2021/12/15 01:00:37;;;;;;;51.05;24.27;;;;;;;4.18;62.74;101087.09;4363597;32;32025;-90
2021/12/15 01:03:29;;;;;;;47.00;23.25;;;;;;;4.18;62.75;101090.59;4386081;32;33282;-92
2021/12/15 01:06:22;;;;;;;44.38;21.20;;;;;;;4.41;61.87;101089.75;4340776;33;34456;-92
2021/12/15 01:09:07;;;;;;;48.53;21.70;;;;;;;4.17;62.27;101096.66;4357361;32;32307;-92
2021/12/15 01:12:20;;;;;;;49.60;22.75;;;;;;;3.87;62.78;101101.78;4377837;32;33280;-91
2021/12/15 01:20:53;;;;;;;42.80;21.10;;;;;;;4.63;59.35;101094.16;4371594;32;32703;-92
2021/12/15 01:23:44;;;;;;;41.95;20.27;;;;;;;4.46;59.71;101093.25;4395555;32;32551;-91
2021/12/15 01:26:36;;;;;;;49.13;23.92;;;;;;;4.10;61.28;101092.31;4331758;33;33047;-90
2021/12/15 01:29:05;;;;;;;39.45;21.37;;;;;;;3.81;61.17;101106.12;4332753;33;33614;-90
2021/12/15 01:31:33;;;;;;;39.83;21.30;;;;;;;3.96;60.64;101094.87;4333692;33;32444;-90
2021/12/15 01:34:09;;;;;;;37.50;18.70;;;;;;;4.06;59.95;101095.78;4332644;33;32688;-90
2021/12/15 01:36:49;;;;;;;44.30;20.70;;;;;;;3.79;60.98;101100.00;4344490;33;32893;-91
2021/12/15 01:39:27;;;;;;;39.97;20.05;;;;;;;3.58;61.73;101095.56;4334967;33;33612;-91
2021/12/15 01:41:56;;;;;;;30.25;17.73;;;;;;;3.42;62.32;101092.84;4332577;33;32794;-93
2021/12/15 01:48:02;;;;;;;38.58;19.17;;;;;;;3.51;62.19;101087.66;4375840;32;33367;-92
2021/12/15 01:50:55;;;;;;;34.13;17.25;;;;;;;3.90;60.59;101096.59;4384280;32;32849;-92
2021/12/15 01:53:34;;;;;;;39.00;19.30;;;;;;;3.72;61.08;101100.84;4374148;32;32206;-92
2021/12/15 01:56:26;;;;;;;39.03;19.10;;;;;;;3.55;61.74;101094.66;4359656;32;32647;-89
2021/12/15 01:58:55;;;;;;;33.90;18.02;;;;;;;3.58;61.96;101095.56;4356511;32;32909;-89
2021/12/15 02:05:45;;;;;;;36.10;18.20;;;;;;;3.33;62.78;101098.91;4349327;33;35087;-90
2021/12/15 02:08:36;;;;;;;36.90;18.87;;;;;;;3.47;62.33;101102.47;4386147;32;32988;-89
2021/12/15 02:11:16;;;;;;;40.38;18.12;;;;;;;3.17;63.59;101100.50;4378339;32;34265;-90
2021/12/15 02:13:45;;;;;;;42.72;18.70;;;;;;;3.24;63.14;101099.69;4359363;32;32673;-91
2021/12/15 02:20:39;;;;;;;38.25;17.65;;;;;;;3.63;61.78;101092.97;4379198;32;34565;-90
2021/12/15 02:23:12;;;;;;;36.00;17.12;;;;;;;3.38;62.53;101085.88;4375132;32;33399;-91
2021/12/15 02:25:40;;;;;;;34.45;17.42;;;;;;;3.43;62.68;101087.66;4359157;32;32745;-90
2021/12/15 02:28:10;;;;;;;29.23;14.60;;;;;;;3.41;62.58;101083.25;4371155;32;32330;-90
2021/12/15 02:39:18;;;;;;;26.15;14.43;;;;;;;3.08;64.21;101108.25;4407081;32;33518;-91
2021/12/15 02:41:58;;;;;;;29.27;14.77;;;;;;;3.17;64.09;101097.03;4362767;32;33075;-90
2021/12/15 02:44:46;;;;;;;28.67;14.07;;;;;;;3.39;63.01;101098.06;4362829;32;33305;-90
2021/12/15 02:47:17;;;;;;;26.17;13.48;;;;;;;3.58;62.54;101092.94;4338486;32;32258;-92
2021/12/15 02:50:18;;;;;;;27.00;12.73;;;;;;;3.42;62.75;101098.06;4384088;32;32579;-91
2021/12/15 02:52:58;;;;;;;30.52;14.30;;;;;;;3.19;63.79;101098.78;4371163;32;33728;-91
2021/12/15 02:56:10;;;;;;;28.83;14.93;;;;;;;3.49;62.74;101089.41;4368746;32;33895;-90
2021/12/15 02:58:38;;;;;;;28.58;13.77;;;;;;;3.30;63.79;101088.41;4362120;32;32446;-90
2021/12/15 03:01:17;;;;;;;30.00;14.85;;;;;;;3.61;62.74;101092.09;4375120;32;32526;-90
2021/12/15 03:06:23;;;;;;;30.80;15.07;;;;;;;3.87;61.61;101086.97;4349760;32;32766;-90
2021/12/15 03:15:18;;;;;;;29.55;15.13;;;;;;;3.64;62.25;101097.31;4358016;32;33816;-90
2021/12/15 03:18:19;;;;;;;28.73;15.13;;;;;;;3.50;63.32;101081.56;4356334;32;32912;-92
2021/12/15 03:21:01;;;;;;;28.95;15.07;;;;;;;3.72;62.82;101077.34;4349287;32;33564;-90
2021/12/15 03:23:51;;;;;;;30.95;14.80;;;;;;;3.98;61.77;101068.72;4382444;32;33398;-90
2021/12/15 03:26:42;;;;;;;30.05;14.87;;;;;;;3.90;61.69;101070.47;4352767;32;32675;-91
2021/12/15 03:35:48;;;;;;;32.17;14.98;;;;;;;3.67;63.07;101052.94;4381049;32;33400;-93
2021/12/15 03:38:40;;;;;;;26.23;12.65;;;;;;;4.16;60.91;101058.34;4332911;33;32603;-92
2021/12/15 03:41:22;;;;;;;32.05;16.48;;;;;;;3.95;61.75;101068.75;4329093;33;33248;-92
2021/12/15 03:44:06;;;;;;;32.15;14.65;;;;;;;4.10;61.05;101071.41;4355660;32;34492;-92
2021/12/15 03:46:59;;;;;;;26.83;14.45;;;;;;;3.74;62.12;101073.00;4362770;32;32069;-93
2021/12/15 03:49:39;;;;;;;29.37;14.65;;;;;;;3.67;62.70;101073.84;4349587;32;32620;-91
2021/12/15 03:52:11;;;;;;;30.15;14.65;;;;;;;3.60;62.89;101079.88;4368526;32;33220;-90
2021/12/15 03:54:39;;;;;;;28.05;14.68;;;;;;;3.91;62.22;101077.44;4366831;32;33199;-90
2021/12/15 03:57:07;;;;;;;28.55;14.77;;;;;;;4.05;61.49;101075.75;4357427;32;32551;-90
2021/12/15 03:59:45;;;;;;;27.42;15.43;;;;;;;4.18;60.58;101082.75;4351955;32;33870;-91
2021/12/15 04:02:58;;;;;;;27.77;15.18;;;;;;;3.93;61.48;101075.69;4356432;32;33220;-94
2021/12/15 04:05:55;;;;;;;36.30;15.45;;;;;;;3.55;62.59;101073.75;4355430;32;32989;-92
2021/12/15 04:08:35;;;;;;;29.08;14.50;;;;;;;3.73;62.13;101067.78;4373492;32;33571;-91
2021/12/15 04:11:46;;;;;;;30.00;15.30;;;;;;;3.61;62.37;101068.59;4374415;32;34147;-91
2021/12/15 04:14:22;;;;;;;26.90;13.32;;;;;;;3.62;62.39;101086.00;4367469;32;32889;-91
2021/12/15 04:17:26;;;;;;;26.92;13.98;;;;;;;3.59;62.25;101086.84;4392423;32;33320;-91
2021/12/15 04:20:16;;;;;;;27.20;14.60;;;;;;;3.84;61.50;101093.06;4381265;32;33114;-91
2021/12/15 04:23:08;;;;;;;29.80;15.38;;;;;;;3.96;61.03;101096.59;4381928;32;33072;-90
2021/12/15 04:25:41;;;;;;;29.70;15.57;;;;;;;3.78;61.37;101093.03;4378596;32;33666;-91
2021/12/15 04:28:36;;;;;;;27.37;14.27;;;;;;;3.95;60.83;101087.03;4361188;32;32699;-89
2021/12/15 04:31:09;;;;;;;27.25;14.85;;;;;;;3.75;61.04;101079.97;4358781;32;32083;-89
2021/12/15 04:33:57;;;;;;;24.65;13.25;;;;;;;3.78;60.94;101081.72;4366807;32;32881;-89
2021/12/15 04:36:29;;;;;;;29.52;14.85;;;;;;;3.65;61.07;101091.22;4364776;32;34235;-92
2021/12/15 04:39:26;;;;;;;27.80;14.35;;;;;;;3.60;61.11;101098.16;4342790;32;33031;-93
2021/12/15 04:42:05;;;;;;;25.15;14.95;;;;;;;3.50;61.51;101109.44;4393611;32;32423;-94
2021/12/15 04:44:56;;;;;;;32.03;15.40;;;;;;;3.49;61.73;101107.69;4362680;32;33043;-93
2021/12/15 04:47:36;;;;;;;30.15;15.32;;;;;;;3.66;61.20;101113.03;4334913;33;33084;-93
2021/12/15 04:50:29;;;;;;;30.50;15.03;;;;;;;3.58;61.26;101111.22;4337594;33;33163;-91
2021/12/15 04:53:20;;;;;;;26.30;14.57;;;;;;;3.57;61.23;101104.25;4392129;32;32327;-92
2021/12/15 04:55:48;;;;;;;28.08;15.95;;;;;;;3.49;61.62;101110.31;4367577;32;32593;-91
2021/12/15 04:58:16;;;;;;;30.42;14.95;;;;;;;3.67;61.08;101106.94;4368078;32;33943;-92
2021/12/15 05:00:53;;;;;;;36.42;16.58;;;;;;;3.53;61.51;101109.47;4384901;32;32786;-92
2021/12/15 05:03:43;;;;;;;32.20;15.30;;;;;;;3.51;61.81;101114.69;4366522;32;33810;-92
2021/12/15 05:06:12;;;;;;;30.73;14.98;;;;;;;3.68;61.07;101116.50;4383096;32;32696;-91
2021/12/15 05:08:41;;;;;;;35.08;16.35;;;;;;;3.42;62.02;101112.00;4360313;32;33164;-92
2021/12/15 05:11:22;;;;;;;33.17;16.03;;;;;;;3.41;62.39;101118.06;4359839;32;32649;-91
2021/12/15 05:13:50;;;;;;;33.17;15.13;;;;;;;3.56;61.84;101128.63;4343489;32;32720;-91
2021/12/15 05:16:19;;;;;;;31.27;14.40;;;;;;;3.52;62.14;101136.44;4363111;32;32850;-92
2021/12/15 05:18:49;;;;;;;36.13;17.58;;;;;;;3.51;62.36;101139.91;4373525;32;34219;-93
2021/12/15 05:21:32;;;;;;;29.77;16.02;;;;;;;3.59;62.04;101138.22;4348666;32;33777;-91
2021/12/15 05:27:14;;;;;;;30.42;15.15;;;;;;;3.41;62.53;101136.34;4365484;32;33396;-92
2021/12/15 05:30:10;;;;;;;34.53;16.08;;;;;;;3.29;62.92;101144.97;4358239;32;33364;-92
2021/12/15 05:32:50;;;;;;;29.08;15.98;;;;;;;3.58;61.97;101146.91;4367546;32;32891;-92
2021/12/15 05:35:41;;;;;;;29.92;15.38;;;;;;;3.89;60.35;101147.06;4360195;32;33481;-91
2021/12/15 05:38:24;;;;;;;36.53;17.55;;;;;;;3.42;61.84;101148.56;4358376;32;32642;-91
2021/12/15 05:41:19;;;;;;;32.45;14.82;;;;;;;3.25;62.56;101163.22;4363406;32;35461;-89
2021/12/15 05:43:48;;;;;;;30.50;15.77;;;;;;;3.13;63.08;101153.53;4342441;32;33205;-90
2021/12/15 05:46:18;;;;;;;33.65;15.43;;;;;;;3.46;62.30;101149.44;4356563;32;32788;-91
2021/12/15 05:48:47;;;;;;;29.85;15.05;;;;;;;3.42;62.20;101156.41;4353255;32;32474;-91
2021/12/15 05:51:17;;;;;;;32.50;16.17;;;;;;;3.40;62.21;101165.94;4352768;32;32816;-91
2021/12/15 05:53:58;;;;;;;32.90;14.87;;;;;;;3.48;61.58;101166.00;4344970;32;32426;-91
2021/12/15 05:56:26;;;;;;;29.58;15.73;;;;;;;3.49;61.82;101178.19;4336783;32;32453;-92
2021/12/15 05:59:07;;;;;;;33.95;16.50;;;;;;;3.55;61.71;101171.25;4353302;32;33498;-91
2021/12/15 06:01:36;;;;;;;41.20;19.85;;;;;;;3.30;62.36;101180.66;4341853;33;33049;-89
2021/12/15 06:04:27;;;;;;;48.03;20.80;;;;;;;3.41;62.22;101190.31;4339701;33;32516;-91
2021/12/15 06:07:07;;;;;;;47.25;20.92;;;;;;;3.40;62.32;101188.56;4357135;32;32434;-93
2021/12/15 06:10:13;;;;;;;46.05;23.20;;;;;;;3.41;62.50;101188.56;4372463;32;33705;-92
2021/12/15 06:12:55;;;;;;;47.88;20.85;;;;;;;3.29;62.77;101191.97;4376578;32;33932;-92
2021/12/15 06:15:45;;;;;;;38.30;18.33;;;;;;;3.34;62.88;101203.31;4338609;32;32760;-92
2021/12/15 06:18:29;;;;;;;40.28;18.80;;;;;;;3.43;62.73;101212.97;4376308;32;33138;-93
2021/12/15 06:21:31;;;;;;;37.40;17.90;;;;;;;3.26;62.85;101217.16;4361738;32;32895;-93
2021/12/15 06:24:11;;;;;;;34.90;17.40;;;;;;;3.50;62.23;101227.81;4382181;32;33282;-87
2021/12/15 06:26:39;;;;;;;30.42;16.50;;;;;;;3.38;62.57;101224.25;4394761;32;33568;-87
2021/12/15 06:29:07;;;;;;;34.08;16.67;;;;;;;3.79;60.87;101214.97;4394655;32;32644;-86
2021/12/15 06:31:34;;;;;;;32.38;16.83;;;;;;;3.58;61.33;101222.66;4393872;32;33440;-87
2021/12/15 06:34:02;;;;;;;36.13;17.23;;;;;;;3.30;62.64;101221.56;4394630;32;34171;-87
2021/12/15 06:36:30;;;;;;;34.03;18.08;;;;;;;3.33;62.83;101219.84;4395034;32;33001;-87
2021/12/15 06:38:58;;;;;;;38.95;19.08;;;;;;;3.37;62.87;101218.16;4382680;32;32240;-87
2021/12/15 06:41:26;;;;;;;42.53;18.55;;;;;;;3.26;63.14;101218.03;4382486;32;33961;-87
2021/12/15 06:43:56;;;;;;;34.03;17.73;;;;;;;3.32;63.12;101220.72;4394086;32;33090;-87
2021/12/15 06:46:52;;;;;;;33.13;18.12;;;;;;;3.55;62.54;101222.63;4395149;32;33929;-87
2021/12/15 07:00:27;;;;;;;41.45;18.35;;;;;;;3.59;62.62;101224.41;4395452;32;33539;-87
2021/12/15 07:02:56;;;;;;;38.67;18.98;;;;;;;3.85;61.35;101230.69;4396038;32;34209;-86
2021/12/15 07:05:24;;;;;;;36.50;19.70;;;;;;;4.02;60.66;101237.75;4397448;32;33707;-86
2021/12/15 07:07:54;;;;;;;36.58;18.75;;;;;;;4.06;60.28;101236.91;4394841;32;33524;-86
2021/12/15 07:10:25;;;;;;;37.53;18.25;;;;;;;3.99;60.32;101238.62;4394439;32;33174;-86
2021/12/15 07:12:54;;;;;;;37.10;17.90;;;;;;;3.75;60.84;101249.78;4394496;32;33530;-86
2021/12/15 07:15:22;;;;;;;30.95;16.20;;;;;;;3.16;62.89;101255.38;4394321;32;34850;-86
2021/12/15 07:17:53;;;;;;;34.25;17.70;;;;;;;3.28;62.83;101252.00;4395017;32;34302;-86
2021/12/15 07:22:58;;;;;;;31.80;16.00;;;;;;;3.30;62.88;101261.59;4395141;32;32987;-86
2021/12/15 07:25:27;;;;;;;34.78;17.67;;;;;;;3.18;63.40;101261.50;4392668;32;33917;-86
2021/12/15 07:27:56;;;;;;;34.00;16.12;;;;;;;3.43;62.92;101259.09;4393995;32;33300;-86
2021/12/15 07:30:24;;;;;;;31.25;16.77;;;;;;;3.58;62.42;101257.50;4382084;32;32426;-85
2021/12/15 07:33:02;;;;;;;34.22;18.05;;;;;;;3.58;62.62;101251.38;4382043;32;32610;-86
2021/12/15 07:35:33;;;;;;;37.08;19.08;;;;;;;3.54;62.83;101247.00;4382345;32;32488;-86
2021/12/15 07:38:03;;;;;;;39.25;18.98;;;;;;;3.58;63.16;101251.38;4394446;32;33951;-86
2021/12/15 07:40:30;;;;;;;39.25;19.42;;;;;;;3.80;62.58;101252.44;4394476;32;33572;-86
2021/12/15 07:43:07;;;;;;;42.70;19.52;;;;;;;3.72;62.93;101254.97;4382015;32;32667;-86
2021/12/15 07:45:46;;;;;;;50.12;21.92;;;;;;;4.01;62.00;101252.56;4395258;32;34019;-87
2021/12/15 07:48:16;;;;;;;61.10;24.08;;;;;;;3.72;63.21;101257.59;4391242;32;34785;-86
2021/12/15 07:50:45;;;;;;;48.97;21.37;;;;;;;3.69;63.49;101261.91;4394723;32;34257;-86
2021/12/15 07:53:14;;;;;;;45.38;20.37;;;;;;;3.64;64.07;101256.66;4393421;32;32826;-86
2021/12/15 07:55:42;;;;;;;45.53;19.17;;;;;;;3.92;63.37;101252.50;4381248;32;32903;-86
2021/12/15 07:58:10;;;;;;;51.45;21.33;;;;;;;4.01;63.47;101259.53;4394389;32;34070;-86
2021/12/15 08:00:40;;;;;;;44.70;20.45;;;;;;;3.93;63.94;101274.28;4381819;32;32414;-86
2021/12/15 08:03:09;;;;;;;45.20;20.45;;;;;;;3.94;64.26;101269.09;4381462;32;32420;-86
2021/12/15 08:05:37;;;;;;;43.60;19.08;;;;;;;4.09;63.83;101277.03;4393991;32;33864;-86
2021/12/15 08:08:05;;;;;;;44.13;19.35;;;;;;;4.00;64.58;101283.94;4393287;32;33039;-87
2021/12/15 08:10:34;;;;;;;45.53;19.87;;;;;;;3.98;65.08;101288.25;4381141;32;33002;-87
2021/12/15 08:13:03;;;;;;;44.63;18.65;;;;;;;4.05;65.16;101287.44;4367833;32;32452;-92
2021/12/15 08:15:52;;;;;;;53.72;21.73;;;;;;;4.33;64.42;101286.75;4393524;32;32849;-91
2021/12/15 08:18:22;;;;;;;42.47;20.33;;;;;;;4.17;65.31;101292.72;4369443;32;32170;-91
2021/12/15 08:21:11;;;;;;;55.17;21.40;;;;;;;4.19;65.46;101288.41;4389784;32;32534;-91
2021/12/15 08:23:48;;;;;;;45.38;21.90;;;;;;;4.23;65.53;101305.00;4381321;32;32949;-91
2021/12/15 08:26:40;;;;;;;38.53;19.23;;;;;;;4.40;65.56;101305.09;4375370;32;34758;-91
2021/12/15 08:29:21;;;;;;;38.35;19.05;;;;;;;4.63;64.36;101306.06;4377346;32;32842;-91
2021/12/15 08:32:05;;;;;;;42.70;18.80;;;;;;;4.58;65.05;101313.91;4366903;32;32355;-91
2021/12/15 08:34:45;;;;;;;39.55;18.20;;;;;;;4.36;66.14;101333.81;4376983;32;33494;-92
2021/12/15 08:37:37;;;;;;;44.55;21.02;;;;;;;4.05;67.45;101322.28;4336723;33;33203;-91
2021/12/15 08:40:18;;;;;;;53.15;19.37;;;;;;;4.01;68.28;101325.75;4372173;32;32782;-92
2021/12/15 08:43:10;;;;;;;;;;;;;;;4.03;68.30;101333.59;4353185;32;32461;-91
2021/12/15 08:45:57;;;;;;;49.20;18.58;;;;;;;4.44;67.36;101325.16;4397134;32;32904;-90
2021/12/15 08:48:55;;;;;;;34.47;16.75;;;;;;;4.36;67.58;101328.59;4354052;32;34403;-92
2021/12/15 08:51:41;;;;;;;48.15;19.00;;;;;;;4.54;67.36;101326.94;4359500;32;33005;-92
2021/12/15 08:54:33;;;;;;;;;;;;;;;4.71;66.35;101327.94;4335624;33;33867;-92
2021/12/15 08:57:02;;;;;;;38.97;17.87;;;;;;;4.30;67.97;101328.56;4334911;33;34953;-91
2021/12/15 09:00:08;;;;;;;35.17;17.05;;;;;;;4.52;67.75;101328.69;4339672;33;34582;-91
2021/12/15 09:02:48;;;;;;;43.65;19.33;;;;;;;4.66;67.44;101321.78;4315273;33;32635;-91
2021/12/15 09:05:42;;;;;;;44.00;18.98;;;;;;;5.04;65.92;101315.84;4344040;32;34173;-90
2021/12/15 09:08:24;;;;;;;44.78;17.95;;;;;;;4.54;68.28;101324.34;4358196;32;33753;-91
2021/12/15 09:11:19;;;;;;;42.55;18.87;;;;;;;5.00;66.93;101316.69;4324588;33;32604;-91
2021/12/15 09:14:00;;;;;;;43.03;18.90;;;;;;;5.25;66.33;101313.25;4351444;32;34011;-90
2021/12/15 09:17:05;;;;;;;42.22;18.30;;;;;;;5.46;65.25;101311.53;4360463;32;33567;-91
2021/12/15 09:19:44;;;;;;;44.08;20.23;;;;;;;5.28;66.02;101313.28;4336732;32;32683;-91
2021/12/15 09:22:25;;;;;;;53.05;21.20;;;;;;;5.42;65.95;101315.06;4350014;32;33242;-91
2021/12/15 09:25:14;;;;;;;42.05;19.20;;;;;;;5.26;66.41;101317.63;4340483;32;32671;-91
2021/12/15 09:27:58;;;;;;;41.88;19.35;;;;;;;5.18;67.32;101314.13;4362548;32;32296;-90
2021/12/15 09:30:52;;;;;;;45.35;19.60;;;;;;;5.24;67.09;101308.03;4362543;32;32847;-91
2021/12/15 09:33:46;;;;;;;37.17;18.42;;;;;;;5.23;67.60;101320.25;4355793;32;34192;-91
2021/12/15 09:36:28;;;;;;;40.08;17.98;;;;;;;5.32;67.26;101309.81;4377026;32;33917;-87
2021/12/15 09:39:05;;;;;;;39.35;17.73;;;;;;;5.50;67.01;101314.19;4361618;32;32087;-88
2021/12/15 09:41:46;;;;;;;39.85;19.40;;;;;;;5.81;66.21;101301.09;4392273;32;33024;-93
2021/12/15 09:44:37;;;;;;;40.00;19.12;;;;;;;5.89;65.14;101302.84;4352970;32;34840;-93
2021/12/15 09:47:34;;;;;;;37.40;19.58;;;;;;;5.76;65.89;101308.97;4343252;32;32818;-92
2021/12/15 10:02:50;;;;;;;38.45;19.55;;;;;;;6.37;63.58;101300.19;4393032;32;32699;-91
2021/12/15 10:06:05;;;;;;;43.42;19.20;;;;;;;6.61;62.39;101294.00;4404306;32;32653;-92
2021/12/15 10:12:27;;;;;;;35.78;18.58;;;;;;;6.86;62.14;101297.38;4357771;32;32728;-92
2021/12/15 10:18:38;;;;;;;35.10;17.33;;;;;;;6.98;62.61;101301.69;4382929;32;32917;-93
2021/12/15 10:21:34;;;;;;;33.83;17.67;;;;;;;7.26;60.81;101290.16;4372706;32;32513;-92
2021/12/15 10:24:36;;;;;;;34.03;17.98;;;;;;;7.44;59.86;101303.16;4377140;32;32647;-92
2021/12/15 10:27:31;;;;;;;30.62;16.33;;;;;;;7.31;60.17;101303.25;4323774;33;33086;-92
2021/12/15 10:30:39;;;;;;;37.13;16.90;;;;;;;7.38;60.35;101305.84;4359256;32;32284;-92
2021/12/15 10:33:39;;;;;;;33.50;17.37;;;;;;;7.73;58.83;101290.69;4389803;32;33111;-92
2021/12/15 10:36:39;;;;;;;29.00;17.52;;;;;;;7.87;58.06;101294.06;4347367;32;33140;-91
2021/12/15 10:39:21;;;;;;;29.08;17.02;;;;;;;7.81;58.57;101300.25;4348119;32;31920;-92
2021/12/15 10:42:28;;;;;;;33.28;17.62;;;;;;;8.10;57.47;101296.50;4353144;32;32495;-91
2021/12/15 10:45:16;;;;;;;34.88;17.85;;;;;;;7.91;58.30;101301.06;4373515;32;33080;-91
2021/12/15 10:48:23;;;;;;;36.00;17.90;;;;;;;8.03;59.25;101297.47;4373933;32;33835;-93
2021/12/15 10:51:27;;;;;;;35.30;18.73;;;;;;;8.66;56.84;101297.69;4362612;32;32326;-92
2021/12/15 10:54:29;;;;;;;40.50;18.85;;;;;;;8.50;57.23;101286.47;4345002;33;33276;-93
2021/12/15 10:57:12;;;;;;;34.85;18.55;;;;;;;8.91;56.37;101287.72;4365312;32;33161;-91
2021/12/15 11:00:08;;;;;;;33.10;17.05;;;;;;;8.82;55.41;101293.09;4364311;32;32247;-92
2021/12/15 11:02:48;;;;;;;33.70;18.33;;;;;;;8.97;55.55;101296.41;4399168;32;32430;-91
2021/12/15 11:05:40;;;;;;;31.33;17.70;;;;;;;8.57;56.68;101297.78;4362218;32;33596;-91
2021/12/15 11:08:21;;;;;;;37.70;18.80;;;;;;;8.97;55.43;101293.78;4382900;32;33206;-91
2021/12/15 11:11:27;;;;;;;34.97;18.27;;;;;;;9.19;54.50;101288.22;4380177;32;32983;-91
2021/12/15 11:14:30;;;;;;;32.08;17.40;;;;;;;9.06;54.99;101291.91;4342344;32;32690;-91
2021/12/15 11:17:49;;;;;;;33.78;17.23;;;;;;;9.08;54.38;101291.00;4356095;32;32807;-91
2021/12/15 11:20:34;;;;;;;28.00;15.50;;;;;;;9.14;54.23;101290.03;4351851;32;32638;-91
2021/12/15 11:23:29;;;;;;;34.40;16.92;;;;;;;9.19;53.94;101283.81;4366478;32;33313;-92
2021/12/15 11:26:15;;;;;;;31.67;16.87;;;;;;;9.21;53.78;101289.06;4367012;32;33753;-92
2021/12/15 11:29:06;;;;;;;31.73;16.87;;;;;;;8.96;54.41;101291.16;4346062;33;33781;-92
2021/12/15 11:31:45;;;;;;;35.55;18.87;;;;;;;9.16;54.50;101288.25;4327002;33;32408;-92
2021/12/15 11:34:36;;;;;;;31.08;16.27;;;;;;;9.30;53.63;101291.53;4334299;33;32615;-92
2021/12/15 11:37:55;;;;;;;31.20;17.55;;;;;;;9.20;53.89;101287.31;4396301;32;32755;-91
2021/12/15 11:41:04;;;;;;;36.47;17.75;;;;;;;9.16;54.23;101291.78;4360702;32;34445;-93
2021/12/15 11:43:52;;;;;;;34.35;17.77;;;;;;;9.09;54.75;101295.38;4391876;32;33138;-92
2021/12/15 11:46:47;;;;;;;31.87;17.37;;;;;;;8.96;55.38;101286.75;4376416;32;32774;-92
2021/12/15 11:49:29;;;;;;;33.08;18.17;;;;;;;9.13;54.41;101290.94;4352981;32;32469;-92
2021/12/15 11:52:20;;;;;;;30.40;16.10;;;;;;;9.17;54.48;101282.97;4356807;32;33218;-92
2021/12/15 11:54:59;;;;;;;33.33;17.98;;;;;;;9.30;54.28;101281.00;4372418;32;32878;-91
2021/12/15 11:57:52;;;;;;;38.13;17.50;;;;;;;9.40;54.36;101276.47;4353205;32;33499;-90
2021/12/15 12:00:31;;;;;;;31.08;17.48;;;;;;;9.46;53.90;101277.25;4373053;32;33372;-91
2021/12/15 12:03:22;;;;;;;31.15;17.37;;;;;;;9.38;53.92;101286.19;4352167;32;32465;-91
2021/12/15 12:06:02;;;;;;;38.38;18.77;;;;;;;9.07;55.63;101273.47;4353356;32;33077;-91
2021/12/15 12:08:53;;;;;;;33.97;19.23;;;;;;;9.12;55.54;101278.66;4345213;32;33158;-91
2021/12/15 12:11:34;;;;;;;32.78;17.05;;;;;;;9.58;53.53;101273.53;4368661;32;33634;-91
2021/12/15 12:14:51;;;;;;;33.22;17.30;;;;;;;9.50;53.64;101264.91;4359624;32;32476;-90
2021/12/15 12:17:34;;;;;;;31.85;17.12;;;;;;;9.52;53.89;101264.88;4369078;32;33302;-92
2021/12/15 12:20:32;;;;;;;35.10;16.85;;;;;;;9.36;54.83;101259.84;4369574;32;34584;-90
2021/12/15 12:23:14;;;;;;;33.75;18.87;;;;;;;9.30;54.87;101259.91;4391137;32;32897;-92
2021/12/15 12:26:17;;;;;;;29.70;16.87;;;;;;;9.67;53.61;101264.63;4373493;32;33658;-93
2021/12/15 12:28:57;;;;;;;33.55;17.17;;;;;;;9.59;53.31;101255.94;4375279;32;33141;-92
2021/12/15 12:31:39;;;;;;;30.58;16.73;;;;;;;9.57;53.70;101266.53;4362814;32;33247;-92
2021/12/15 12:34:30;;;;;;;35.45;17.55;;;;;;;9.75;53.05;101265.38;4353809;32;33064;-93
2021/12/15 12:37:22;;;;;;;33.08;16.98;;;;;;;9.81;52.63;101265.25;4345439;32;32500;-92
2021/12/15 12:40:28;;;;;;;33.70;16.05;;;;;;;9.58;53.46;101272.66;4338697;33;33579;-92
2021/12/15 12:43:29;;;;;;;30.85;15.93;;;;;;;9.71;53.26;101275.09;4345060;32;34406;-93
2021/12/15 12:46:28;;;;;;;33.70;17.60;;;;;;;9.78;52.07;101275.88;4324608;33;33728;-93
2021/12/15 13:01:20;;;;;;;35.88;20.27;;;;;;;9.29;54.78;101266.09;4414879;32;33145;-92
2021/12/15 13:04:35;;;;;;;33.17;15.23;;;;;;;9.59;53.29;101261.22;4378753;32;33606;-93
2021/12/15 13:07:15;;;;;;;28.50;16.05;;;;;;;9.45;53.62;101254.44;4378705;32;33101;-91
2021/12/15 13:10:06;;;;;;;31.93;14.70;;;;;;;9.20;54.46;101256.56;4410797;32;32990;-92
2021/12/15 13:12:49;;;;;;;32.22;17.33;;;;;;;9.28;54.60;101251.19;4381875;32;32579;-92
2021/12/15 13:15:41;;;;;;;27.45;16.27;;;;;;;9.10;54.89;101249.69;4357006;32;32423;-92
2021/12/15 13:18:24;;;;;;;30.08;15.70;;;;;;;9.30;54.40;101245.88;4398686;32;33977;-92
2021/12/15 13:21:23;;;;;;;24.33;12.05;;;;;;;9.07;55.29;101252.38;4343058;32;33056;-91
2021/12/15 13:24:10;;;;;;;23.73;12.05;;;;;;;9.34;53.88;101250.22;4377887;32;34496;-91
2021/12/15 13:30:02;;;;;;;23.00;11.68;;;;;;;9.40;52.71;101253.63;4351575;32;32846;-88
2021/12/15 13:32:33;;;;;;;20.02;10.55;;;;;;;9.26;53.55;101250.34;4349657;32;33193;-89
2021/12/15 13:35:00;;;;;;;15.45;9.85;;;;;;;9.31;53.41;101250.28;4349678;32;33754;-88
2021/12/15 13:37:59;;;;;;;23.20;10.18;;;;;;;9.37;53.32;101245.75;4350901;32;33572;-89
2021/12/15 13:40:53;;;;;;;17.00;9.82;;;;;;;9.44;53.24;101250.03;4349452;32;32855;-88
2021/12/15 13:43:44;;;;;;;18.00;10.20;;;;;;;9.38;53.55;101262.44;4337235;32;32215;-89
2021/12/15 13:46:33;;;;;;;21.25;10.63;;;;;;;9.30;53.57;101257.28;4349437;32;32760;-89
2021/12/15 13:49:04;;;;;;;25.33;11.57;;;;;;;9.23;53.56;101268.81;4349495;32;33850;-89
2021/12/15 13:52:05;;;;;;;21.45;11.27;;;;;;;9.32;53.33;101263.41;4361571;32;33158;-89
2021/12/15 13:54:35;;;;;;;21.83;11.52;;;;;;;9.13;53.67;101275.13;4361861;32;31909;-93
2021/12/15 13:57:20;;;;;;;18.83;10.95;;;;;;;8.88;54.09;101277.25;4362942;32;33250;-93
2021/12/15 14:00:30;;;;;;;25.77;10.88;;;;;;;9.04;53.99;101264.72;4364202;32;32033;-92
2021/12/15 14:03:39;;;;;;;18.23;9.90;;;;;;;8.77;54.16;101285.25;4339189;33;32881;-93
2021/12/15 14:06:24;;;;;;;22.45;11.20;;;;;;;8.68;53.97;101280.97;4375539;32;33868;-89
2021/12/15 14:08:56;;;;;;;25.62;13.75;;;;;;;8.70;53.94;101283.59;4365920;32;34097;-89
2021/12/15 14:11:27;;;;;;;21.12;13.05;;;;;;;8.45;54.08;101289.16;4377628;32;33053;-89
2021/12/15 14:14:06;;;;;;;25.57;13.77;;;;;;;8.46;54.32;101280.38;4378178;32;32574;-89